Time;durP1;ratioP1;P1;durP2;ratioP2;P2;SDS_P1;SDS_P2;PMS_P1;PMS_P2;Temp;Humidity;BMP_temperature;BMP_pressure;BME280_temperature;BME280_humidity;BME280_pressure;Samples;Min_cycle;Max_cycle;Signal;HPM_P1;HPM_P2
2023/12/30 00:10:13;;;;;;;13.20;8.77;;;7.20;99.90;;;;;;6171240;23;20278;-85
2023/12/30 00:12:43;;;;;;;11.97;8.53;;;7.10;99.90;;;;;;6165683;23;20174;-87
2023/12/30 00:15:13;;;;;;;12.47;8.50;;;7.20;99.90;;;;;;6172311;23;20190;-85
2023/12/30 00:17:42;;;;;;;12.83;7.87;;;7.10;99.90;;;;;;6177587;23;20179;-86
2023/12/30 00:20:12;;;;;;;13.03;8.50;;;7.10;99.90;;;;;;6149199;23;20159;-86
2023/12/30 00:22:45;;;;;;;11.93;8.53;;;7.10;99.90;;;;;;6176525;23;20164;-86
2023/12/30 00:25:16;;;;;;;12.70;8.37;;;7.20;99.90;;;;;;6175817;23;20218;-86
2023/12/30 00:27:49;;;;;;;13.93;8.83;;;6.90;99.90;;;;;;6174758;23;20175;-85
2023/12/30 00:30:18;;;;;;;13.73;8.80;;;6.90;99.90;;;;;;6172964;23;20173;-85
2023/12/30 00:32:48;;;;;;;13.83;8.60;;;6.80;99.90;;;;;;6174555;23;20171;-85
2023/12/30 00:35:18;;;;;;;12.20;8.03;;;6.80;99.90;;;;;;6173909;23;20194;-85
2023/12/30 00:37:47;;;;;;;12.70;8.67;;;6.80;99.90;;;;;;6174259;23;20222;-84
2023/12/30 00:40:18;;;;;;;12.23;8.50;;;6.70;99.90;;;;;;6174941;23;20180;-88
2023/12/30 00:42:55;;;;;;;10.90;8.70;;;6.60;99.90;;;;;;6176343;23;20177;-84
2023/12/30 00:45:24;;;;;;;13.47;9.07;;;6.50;99.90;;;;;;6169336;23;20396;-85
2023/12/30 00:47:53;;;;;;;10.80;8.20;;;6.50;99.90;;;;;;6168765;23;20779;-85
2023/12/30 00:50:23;;;;;;;12.30;8.63;;;6.40;99.90;;;;;;6166741;23;20495;-86
2023/12/30 00:52:53;;;;;;;12.37;8.57;;;6.30;99.90;;;;;;6165968;23;20178;-85
2023/12/30 00:55:23;;;;;;;12.27;8.87;;;6.20;99.90;;;;;;6165495;23;20489;-86
2023/12/30 00:57:53;;;;;;;12.60;8.73;;;6.20;99.90;;;;;;6162514;23;20190;-86
2023/12/30 01:00:21;;;;;;;11.23;8.40;;;6.20;99.90;;;;;;6120023;23;20615;-85
2023/12/30 01:02:51;;;;;;;11.40;9.23;;;6.20;99.90;;;;;;6122872;23;20586;-85
2023/12/30 01:05:20;;;;;;;12.03;8.80;;;6.20;99.90;;;;;;6157747;23;20203;-84
2023/12/30 01:07:49;;;;;;;13.23;8.53;;;6.20;99.90;;;;;;6165143;23;20168;-84
2023/12/30 01:10:19;;;;;;;14.07;8.47;;;6.10;99.90;;;;;;6170117;23;20353;-84
2023/12/30 01:12:50;;;;;;;13.43;8.47;;;6.00;99.90;;;;;;6174024;23;20182;-85
2023/12/30 01:15:19;;;;;;;11.90;8.67;;;6.00;99.90;;;;;;6172752;23;20325;-85
2023/12/30 01:17:49;;;;;;;11.57;8.80;;;6.00;99.90;;;;;;6138446;23;20209;-84
2023/12/30 01:20:18;;;;;;;12.10;8.57;;;6.10;99.90;;;;;;6166761;23;20237;-86
2023/12/30 01:22:50;;;;;;;12.23;8.57;;;6.10;99.90;;;;;;6167032;23;20186;-86
2023/12/30 01:25:19;;;;;;;11.43;8.17;;;6.20;99.90;;;;;;6171852;23;20193;-87
2023/12/30 01:27:50;;;;;;;10.50;7.80;;;6.30;99.90;;;;;;6173935;23;20241;-85
2023/12/30 01:30:22;;;;;;;9.73;7.30;;;6.40;99.90;;;;;;6174734;23;20183;-87
2023/12/30 01:32:53;;;;;;;11.93;7.67;;;6.40;99.90;;;;;;6176953;23;20170;-87
2023/12/30 01:35:22;;;;;;;9.50;7.47;;;6.50;99.90;;;;;;6167488;23;20191;-89
2023/12/30 01:37:51;;;;;;;11.77;7.80;;;6.60;99.90;;;;;;6176399;23;20162;-84
2023/12/30 01:40:21;;;;;;;11.70;7.40;;;6.60;99.90;;;;;;6173054;23;20178;-84
2023/12/30 01:42:56;;;;;;;9.80;7.00;;;6.70;99.90;;;;;;6173920;23;20160;-86
2023/12/30 01:45:25;;;;;;;11.47;7.43;;;6.80;99.90;;;;;;6173251;23;20214;-85
2023/12/30 01:47:59;;;;;;;10.90;7.47;;;6.80;99.90;;;;;;6176907;23;20159;-86
2023/12/30 01:50:33;;;;;;;12.27;7.80;;;6.80;99.90;;;;;;6171984;23;20514;-85
2023/12/30 01:53:02;;;;;;;9.23;7.07;;;6.80;99.90;;;;;;6175291;23;20164;-86
2023/12/30 01:55:40;;;;;;;8.63;7.20;;;6.80;99.90;;;;;;6174897;23;20170;-85
2023/12/30 01:58:12;;;;;;;11.60;7.57;;;7.00;99.90;;;;;;6175190;23;20167;-86
2023/12/30 02:00:43;;;;;;;11.13;7.60;;;7.00;99.90;;;;;;6175675;23;20163;-86
2023/12/30 02:03:18;;;;;;;10.23;6.67;;;6.90;99.90;;;;;;6170823;23;20262;-89
2023/12/30 02:05:49;;;;;;;9.10;6.93;;;7.10;99.90;;;;;;6134311;23;20212;-84
2023/12/30 02:08:22;;;;;;;11.30;7.30;;;7.20;99.90;;;;;;6129688;23;20660;-87
2023/12/30 02:10:55;;;;;;;10.23;6.87;;;7.10;99.90;;;;;;6166359;23;20175;-85
2023/12/30 02:13:27;;;;;;;9.50;7.23;;;7.10;99.90;;;;;;6167132;23;20171;-86
2023/12/30 02:15:56;;;;;;;11.73;7.70;;;7.20;99.90;;;;;;6171537;23;20183;-83
2023/12/30 02:18:25;;;;;;;12.17;7.23;;;7.20;99.90;;;;;;6165220;23;20182;-86
2023/12/30 02:20:54;;;;;;;10.30;7.03;;;7.30;99.90;;;;;;6169001;23;20178;-83
2023/12/30 02:23:27;;;;;;;9.63;6.10;;;7.30;99.90;;;;;;6163555;23;20176;-86
2023/12/30 02:25:55;;;;;;;9.63;7.03;;;7.60;99.90;;;;;;6125327;23;20203;-84
2023/12/30 02:28:25;;;;;;;10.20;7.43;;;7.40;99.90;;;;;;6161913;23;20265;-87
2023/12/30 02:30:54;;;;;;;8.63;6.47;;;7.40;99.90;;;;;;6166316;23;20722;-86
2023/12/30 02:33:23;;;;;;;8.90;6.87;;;7.50;99.90;;;;;;6156602;23;20233;-84
2023/12/30 02:35:52;;;;;;;10.70;6.60;;;7.70;99.90;;;;;;6149381;23;20262;-86
2023/12/30 02:38:22;;;;;;;8.20;6.13;;;7.50;99.90;;;;;;6146527;23;20233;-85
2023/12/30 02:40:54;;;;;;;9.23;6.00;;;7.60;99.90;;;;;;6143174;23;20179;-85
2023/12/30 02:43:42;;;;;;;7.97;5.90;;;7.90;99.90;;;;;;6124700;23;20171;-83
2023/12/30 02:46:11;;;;;;;8.80;5.83;;;7.70;99.90;;;;;;6149811;23;20510;-84
2023/12/30 02:48:43;;;;;;;9.23;6.10;;;7.70;99.90;;;;;;6149791;23;20175;-86
2023/12/30 02:51:15;;;;;;;8.50;5.90;;;7.80;99.90;;;;;;6150163;23;20183;-84
2023/12/30 02:53:44;;;;;;;7.20;5.67;;;7.80;99.90;;;;;;6151689;23;20174;-86
2023/12/30 02:56:21;;;;;;;7.37;5.50;;;7.90;99.90;;;;;;6154364;23;20247;-86
2023/12/30 02:58:55;;;;;;;9.40;5.63;;;7.90;99.90;;;;;;6152777;23;20160;-86
2023/12/30 03:01:25;;;;;;;8.23;5.93;;;8.00;99.90;;;;;;6150454;23;20239;-85
2023/12/30 03:03:57;;;;;;;7.93;5.70;;;7.90;99.90;;;;;;6114120;23;20520;-88
2023/12/30 03:06:26;;;;;;;6.40;5.10;;;8.10;99.90;;;;;;6144720;23;20225;-86
2023/12/30 03:08:55;;;;;;;7.53;5.30;;;8.00;99.90;;;;;;6111100;23;20789;-85
2023/12/30 03:11:25;;;;;;;6.83;5.63;;;8.10;99.90;;;;;;6155286;23;20176;-87
2023/12/30 03:13:55;;;;;;;7.47;5.47;;;8.20;99.90;;;;;;6155195;23;20234;-85
2023/12/30 03:16:28;;;;;;;7.13;5.37;;;8.20;99.90;;;;;;6153895;23;20167;-84
2023/12/30 03:18:57;;;;;;;7.13;4.87;;;8.30;99.90;;;;;;6154756;23;20182;-86
2023/12/30 03:21:27;;;;;;;7.13;4.90;;;8.50;99.90;;;;;;6151018;23;20391;-84
2023/12/30 03:23:57;;;;;;;5.40;4.90;;;8.50;99.90;;;;;;6151677;23;20372;-86
2023/12/30 03:26:27;;;;;;;4.97;4.47;;;8.50;99.90;;;;;;6116924;23;20555;-88
2023/12/30 03:28:56;;;;;;;6.40;4.87;;;8.50;99.90;;;;;;6139976;23;20175;-86
2023/12/30 03:31:25;;;;;;;6.93;5.03;;;8.50;99.90;;;;;;6151367;23;20183;-86
2023/12/30 03:33:55;;;;;;;6.37;4.03;;;8.60;99.90;;;;;;6148973;23;20180;-85
2023/12/30 03:36:24;;;;;;;5.90;4.57;;;8.60;99.90;;;;;;6150714;23;20608;-82
2023/12/30 03:38:54;;;;;;;5.50;4.03;;;8.60;99.90;;;;;;6161845;23;20167;-83
2023/12/30 03:41:24;;;;;;;4.83;4.00;;;8.60;99.90;;;;;;6162697;23;20183;-84
2023/12/30 03:43:56;;;;;;;5.30;3.93;;;8.70;99.90;;;;;;6154799;23;20184;-87
2023/12/30 03:46:24;;;;;;;5.33;4.00;;;8.70;99.90;;;;;;6152688;23;20219;-85
2023/12/30 03:48:53;;;;;;;5.10;4.00;;;8.70;99.90;;;;;;6124396;23;20183;-88
2023/12/30 03:51:22;;;;;;;5.10;4.00;;;8.80;99.90;;;;;;6164111;23;20185;-83
2023/12/30 03:53:52;;;;;;;4.30;3.90;;;8.90;99.90;;;;;;6165235;23;20223;-84
2023/12/30 03:56:23;;;;;;;3.90;3.47;;;9.00;99.90;;;;;;6153918;23;20184;-87
2023/12/30 03:58:52;;;;;;;4.43;3.53;;;9.10;99.90;;;;;;6152946;23;20409;-86
2023/12/30 04:01:23;;;;;;;4.10;3.40;;;9.10;99.90;;;;;;6156124;23;20180;-84
2023/12/30 04:03:53;;;;;;;4.27;3.40;;;9.20;99.90;;;;;;6160378;23;20320;-86
2023/12/30 04:06:23;;;;;;;4.13;3.40;;;9.20;99.90;;;;;;6174393;23;20197;-86
2023/12/30 04:08:55;;;;;;;4.33;3.30;;;9.20;99.90;;;;;;6177568;23;20147;-87
2023/12/30 04:11:24;;;;;;;4.10;3.50;;;9.10;99.90;;;;;;6165617;23;20176;-85
2023/12/30 04:13:53;;;;;;;6.53;3.63;;;9.20;99.90;;;;;;6164721;23;20160;-88
2023/12/30 04:16:24;;;;;;;4.47;3.50;;;9.20;99.90;;;;;;6162443;23;20172;-84
2023/12/30 04:18:52;;;;;;;4.23;3.43;;;9.00;99.90;;;;;;6115733;23;20199;-83
2023/12/30 04:21:24;;;;;;;4.27;3.30;;;9.20;99.90;;;;;;6151613;23;20168;-86
2023/12/30 04:23:53;;;;;;;5.00;3.00;;;9.10;99.90;;;;;;6149092;23;20178;-86
2023/12/30 04:26:22;;;;;;;3.80;2.93;;;9.30;99.80;;;;;;6150320;23;20206;-87
2023/12/30 04:28:56;;;;;;;3.80;2.80;;;9.40;99.10;;;;;;6152107;23;20175;-84
2023/12/30 04:31:26;;;;;;;4.13;3.07;;;9.40;98.60;;;;;;6111765;23;20180;-85
2023/12/30 04:33:58;;;;;;;3.97;2.87;;;9.50;98.40;;;;;;6152322;23;20168;-88
2023/12/30 04:36:37;;;;;;;4.33;3.00;;;9.70;97.50;;;;;;6168825;23;20171;-87
2023/12/30 04:39:08;;;;;;;2.50;2.30;;;9.70;96.40;;;;;;6160142;23;20168;-85
2023/12/30 04:41:37;;;;;;;3.37;2.77;;;10.00;94.70;;;;;;6153234;23;20194;-85
2023/12/30 04:44:09;;;;;;;3.07;2.60;;;10.00;94.30;;;;;;6149389;23;20168;-86
2023/12/30 04:46:41;;;;;;;2.63;2.43;;;10.20;93.40;;;;;;6148132;23;20581;-85
2023/12/30 04:49:11;;;;;;;3.23;2.93;;;10.30;93.00;;;;;;6150408;23;20168;-88
2023/12/30 04:51:40;;;;;;;5.43;3.00;;;10.40;92.70;;;;;;6154118;23;20199;-86
2023/12/30 04:54:09;;;;;;;4.00;2.63;;;10.30;93.20;;;;;;6159078;23;20176;-86
2023/12/30 04:56:37;;;;;;;3.80;2.83;;;10.20;93.30;;;;;;6158795;23;20167;-85
2023/12/30 04:59:06;;;;;;;3.10;2.80;;;10.20;93.50;;;;;;6123908;23;20207;-83
2023/12/30 05:01:35;;;;;;;4.57;3.10;;;10.20;93.50;;;;;;6162100;23;20164;-85
2023/12/30 05:04:06;;;;;;;3.13;2.80;;;10.20;93.50;;;;;;6127879;23;20206;-85
2023/12/30 05:06:34;;;;;;;2.80;2.60;;;10.10;93.70;;;;;;6159924;23;20271;-87
2023/12/30 05:09:05;;;;;;;4.37;3.10;;;10.00;94.10;;;;;;6156389;23;20174;-84
2023/12/30 05:11:37;;;;;;;3.80;2.70;;;10.10;94.10;;;;;;6150832;23;20214;-84
2023/12/30 05:14:06;;;;;;;4.20;3.10;;;10.00;94.10;;;;;;6149508;23;20389;-84
2023/12/30 05:16:43;;;;;;;3.70;2.77;;;10.00;94.60;;;;;;6150835;23;20179;-87
2023/12/30 05:19:14;;;;;;;4.17;3.40;;;10.00;94.30;;;;;;6152888;23;20167;-85
2023/12/30 05:21:45;;;;;;;2.83;2.53;;;10.00;94.80;;;;;;6149181;23;20225;-85
2023/12/30 05:24:14;;;;;;;2.70;2.50;;;10.00;94.80;;;;;;6151051;23;20176;-85
2023/12/30 05:26:46;;;;;;;3.07;2.73;;;10.00;94.70;;;;;;6112199;23;20262;-84
2023/12/30 05:29:19;;;;;;;4.77;2.87;;;10.00;94.80;;;;;;6150270;23;20511;-89
2023/12/30 05:32:16;;;;;;;3.10;2.80;;;10.00;94.60;;;;;;6146387;23;20164;-88
2023/12/30 05:34:47;;;;;;;3.57;2.80;;;10.00;94.60;;;;;;6148025;23;20219;-83
2023/12/30 05:37:18;;;;;;;3.33;3.03;;;10.00;94.40;;;;;;6151718;23;20186;-85
2023/12/30 05:39:50;;;;;;;2.63;2.43;;;10.00;94.40;;;;;;6150054;23;20168;-84
2023/12/30 05:42:21;;;;;;;2.97;2.63;;;10.00;94.60;;;;;;6154338;23;20206;-84
2023/12/30 05:44:59;;;;;;;3.30;2.37;;;10.00;94.60;;;;;;6149438;23;20172;-86
2023/12/30 05:47:28;;;;;;;3.70;2.70;;;10.00;94.50;;;;;;6153891;23;20613;-83
2023/12/30 05:50:02;;;;;;;3.40;2.93;;;10.00;94.60;;;;;;6150883;23;20718;-84
2023/12/30 05:52:31;;;;;;;4.60;2.33;;;10.00;94.80;;;;;;6152146;23;20542;-86
2023/12/30 05:55:00;;;;;;;2.70;2.30;;;10.00;95.00;;;;;;6148764;23;20579;-90
2023/12/30 05:57:34;;;;;;;2.60;2.40;;;10.00;94.60;;;;;;6153039;23;20160;-84
2023/12/30 06:00:07;;;;;;;2.83;2.50;;;10.00;94.90;;;;;;6154071;23;20225;-85
2023/12/30 06:02:36;;;;;;;4.13;2.80;;;10.00;94.70;;;;;;6126660;23;20171;-89
2023/12/30 06:05:17;;;;;;;3.80;2.60;;;10.00;95.10;;;;;;6172945;23;20175;-86
2023/12/30 06:07:46;;;;;;;3.20;2.50;;;10.00;95.00;;;;;;6169185;23;20313;-88
2023/12/30 06:10:33;;;;;;;2.60;2.33;;;10.00;95.40;;;;;;6138756;23;20183;-88
2023/12/30 06:13:14;;;;;;;3.27;2.53;;;9.90;97.20;;;;;;6167936;23;20198;-86
2023/12/30 06:15:48;;;;;;;3.63;2.20;;;9.90;98.50;;;;;;6156921;23;20164;-88
2023/12/30 06:18:17;;;;;;;2.40;2.20;;;9.70;99.90;;;;;;6156244;23;20167;-85
2023/12/30 06:20:48;;;;;;;2.57;1.80;;;9.70;99.90;;;;;;6149665;23;20732;-84
2023/12/30 06:23:17;;;;;;;2.57;2.03;;;9.50;99.90;;;;;;6153369;23;20248;-85
2023/12/30 06:25:48;;;;;;;1.90;1.63;;;9.20;99.90;;;;;;6149595;23;20405;-87
2023/12/30 06:28:17;;;;;;;1.80;1.43;;;9.10;99.90;;;;;;6154980;23;20250;-86
2023/12/30 06:30:48;;;;;;;1.40;1.30;;;8.80;99.90;;;;;;6155027;23;20175;-83
2023/12/30 06:33:18;;;;;;;1.50;1.40;;;8.50;99.90;;;;;;6129488;23;20176;-87
2023/12/30 06:35:49;;;;;;;1.30;1.20;;;8.30;99.90;;;;;;6164002;23;20510;-87
2023/12/30 06:38:18;;;;;;;1.40;1.30;;;8.20;99.90;;;;;;6158641;23;20163;-88
2023/12/30 06:40:47;;;;;;;1.43;1.33;;;8.00;99.90;;;;;;6158204;23;20163;-83
2023/12/30 06:43:16;;;;;;;3.23;1.40;;;7.80;99.90;;;;;;6123894;23;20190;-83
2023/12/30 06:45:48;;;;;;;1.20;1.10;;;7.90;99.90;;;;;;6160202;23;20168;-86
2023/12/30 06:48:18;;;;;;;1.20;1.10;;;7.80;99.90;;;;;;6164753;23;20253;-85
2023/12/30 06:50:49;;;;;;;1.30;1.20;;;7.80;99.90;;;;;;6166375;23;20662;-84
2023/12/30 06:53:17;;;;;;;1.30;1.20;;;7.60;99.90;;;;;;6168038;23;20198;-87
2023/12/30 06:55:46;;;;;;;1.37;1.30;;;7.70;99.90;;;;;;6163349;23;20737;-85
2023/12/30 06:58:19;;;;;;;1.70;1.30;;;7.70;99.90;;;;;;6165023;23;20502;-82
2023/12/30 07:00:48;;;;;;;1.47;1.37;;;7.70;99.90;;;;;;6159679;23;20175;-85
2023/12/30 07:03:18;;;;;;;1.33;1.27;;;7.60;99.90;;;;;;6161355;23;20245;-85
2023/12/30 07:05:49;;;;;;;2.33;1.50;;;7.60;99.90;;;;;;6163816;23;20542;-85
2023/12/30 07:08:19;;;;;;;1.57;1.47;;;7.60;99.90;;;;;;6166999;23;20473;-84
2023/12/30 07:10:48;;;;;;;1.60;1.50;;;7.60;99.90;;;;;;6170186;23;20167;-86
2023/12/30 07:13:25;;;;;;;1.67;1.43;;;7.50;99.90;;;;;;6164141;23;20226;-86
2023/12/30 07:15:56;;;;;;;1.47;1.37;;;7.50;99.90;;;;;;6122591;23;20179;-84
2023/12/30 07:18:28;;;;;;;2.10;1.70;;;7.50;99.90;;;;;;6158775;23;20187;-85
2023/12/30 07:21:05;;;;;;;2.03;1.93;;;7.60;99.90;;;;;;6150222;23;20682;-84
2023/12/30 07:23:35;;;;;;;1.87;1.70;;;7.60;99.90;;;;;;6154657;23;20742;-86
2023/12/30 07:26:04;;;;;;;2.20;2.00;;;7.60;99.90;;;;;;6153776;23;20175;-83
2023/12/30 07:28:33;;;;;;;2.03;1.83;;;7.60;99.90;;;;;;6161667;23;20235;-85
2023/12/30 07:31:02;;;;;;;2.20;1.90;;;7.70;99.90;;;;;;6152163;23;20315;-86
2023/12/30 07:33:35;;;;;;;2.77;2.00;;;7.70;99.90;;;;;;6147523;23;20208;-86
2023/12/30 07:36:07;;;;;;;2.53;2.33;;;7.70;99.90;;;;;;6164322;23;20197;-85
2023/12/30 07:38:36;;;;;;;3.00;2.13;;;7.70;99.90;;;;;;6161804;23;20254;-85
2023/12/30 07:41:05;;;;;;;2.30;2.10;;;7.70;99.90;;;;;;6112534;23;20283;-87
2023/12/30 07:43:33;;;;;;;2.20;2.00;;;7.80;99.90;;;;;;6114767;23;20187;-87
2023/12/30 07:46:03;;;;;;;2.13;2.00;;;7.70;99.90;;;;;;6153302;23;20202;-86
2023/12/30 07:48:31;;;;;;;2.43;2.23;;;7.80;99.90;;;;;;6152975;23;20205;-87
2023/12/30 07:51:03;;;;;;;2.67;2.40;;;7.90;99.90;;;;;;6156440;23;20186;-87
2023/12/30 07:53:34;;;;;;;2.23;2.10;;;8.00;99.90;;;;;;6165240;23;20178;-87
2023/12/30 07:56:03;;;;;;;2.47;2.20;;;8.10;99.90;;;;;;6151048;23;20560;-87
2023/12/30 07:58:32;;;;;;;2.90;2.30;;;8.20;99.90;;;;;;6158947;23;20168;-86
2023/12/30 08:01:01;;;;;;;2.30;2.10;;;8.20;99.90;;;;;;6162114;23;20179;-83
2023/12/30 08:03:30;;;;;;;3.53;2.10;;;8.30;99.90;;;;;;6165036;23;20167;-86
2023/12/30 08:05:59;;;;;;;3.40;2.00;;;8.40;99.90;;;;;;6153998;23;20182;-88
2023/12/30 08:08:33;;;;;;;2.00;1.80;;;8.50;99.90;;;;;;6117461;23;20287;-87
2023/12/30 08:11:02;;;;;;;2.03;1.87;;;8.60;99.90;;;;;;6147633;23;20486;-86
2023/12/30 08:13:31;;;;;;;2.47;1.93;;;8.60;99.90;;;;;;6151407;23;20367;-86
2023/12/30 08:16:02;;;;;;;2.53;1.70;;;8.60;99.90;;;;;;6150187;23;20171;-84
2023/12/30 08:18:31;;;;;;;4.60;2.33;;;8.60;99.90;;;;;;6153204;23;20258;-87
2023/12/30 08:21:01;;;;;;;2.20;2.00;;;8.60;99.90;;;;;;6153599;23;20163;-87
2023/12/30 08:23:29;;;;;;;3.07;1.80;;;8.60;99.90;;;;;;6116838;23;20211;-87
2023/12/30 08:26:00;;;;;;;1.80;1.67;;;8.60;99.90;;;;;;6148522;23;20274;-87
2023/12/30 08:28:28;;;;;;;2.50;1.73;;;8.60;99.90;;;;;;6150555;23;20539;-86
2023/12/30 08:31:02;;;;;;;2.47;1.93;;;8.50;99.90;;;;;;6149066;23;20178;-86
2023/12/30 08:33:35;;;;;;;1.60;1.50;;;8.50;99.90;;;;;;6152878;23;20623;-87
2023/12/30 08:36:04;;;;;;;2.30;1.40;;;8.60;99.90;;;;;;6149949;23;20267;-88
2023/12/30 08:38:50;;;;;;;2.10;1.43;;;8.60;99.90;;;;;;6154397;23;20180;-87
2023/12/30 08:41:24;;;;;;;1.40;1.30;;;8.60;99.90;;;;;;6158979;23;20175;-84
2023/12/30 08:43:53;;;;;;;2.23;1.57;;;8.60;99.90;;;;;;6151680;23;20704;-85
2023/12/30 08:46:23;;;;;;;1.53;1.43;;;8.60;99.90;;;;;;6165222;23;20164;-87
2023/12/30 08:48:53;;;;;;;3.60;1.50;;;8.60;99.90;;;;;;6164138;23;20192;-86
2023/12/30 08:51:22;;;;;;;1.57;1.47;;;8.50;99.90;;;;;;6159002;23;20167;-86
2023/12/30 08:53:51;;;;;;;2.47;1.90;;;8.40;99.90;;;;;;6150145;23;20248;-87
2023/12/30 08:56:24;;;;;;;2.10;1.80;;;8.20;99.90;;;;;;6166798;23;20167;-86
2023/12/30 08:58:53;;;;;;;2.87;2.00;;;8.00;99.90;;;;;;6168743;23;20251;-85
2023/12/30 09:01:23;;;;;;;2.30;1.80;;;8.00;99.90;;;;;;6173817;23;20152;-85
2023/12/30 09:03:54;;;;;;;2.50;1.70;;;7.90;99.90;;;;;;6165342;23;20190;-86
2023/12/30 09:06:24;;;;;;;2.13;1.70;;;7.80;99.90;;;;;;6177605;23;20167;-84
2023/12/30 09:08:53;;;;;;;2.67;1.90;;;7.70;99.90;;;;;;6179030;23;20159;-82
2023/12/30 09:11:26;;;;;;;2.17;1.90;;;7.50;99.90;;;;;;6176919;23;20167;-86
2023/12/30 09:13:55;;;;;;;4.00;2.17;;;7.50;99.90;;;;;;6176581;23;20168;-87
2023/12/30 09:16:29;;;;;;;3.50;2.20;;;7.30;99.90;;;;;;6158117;23;20189;-85
2023/12/30 09:19:01;;;;;;;2.80;2.20;;;7.40;99.90;;;;;;6148542;23;20163;-86
2023/12/30 09:21:30;;;;;;;4.10;2.27;;;7.20;99.90;;;;;;6154983;23;20168;-87
2023/12/30 09:23:58;;;;;;;2.23;2.03;;;7.20;99.90;;;;;;6159953;23;20747;-85
2023/12/30 09:26:29;;;;;;;2.70;2.20;;;7.20;99.90;;;;;;6159414;23;20167;-84
2023/12/30 09:29:00;;;;;;;2.57;1.90;;;7.20;99.90;;;;;;6156256;23;20160;-87
2023/12/30 09:31:29;;;;;;;3.27;2.30;;;7.10;99.90;;;;;;6164060;23;20172;-87
2023/12/30 09:33:58;;;;;;;2.23;1.83;;;6.90;99.90;;;;;;6157108;23;20701;-87
2023/12/30 09:36:28;;;;;;;1.37;1.10;;;6.90;99.90;;;;;;6158725;23;20237;-86
2023/12/30 09:38:57;;;;;;;1.43;1.27;;;6.90;99.90;;;;;;6166892;23;20154;-87
2023/12/30 09:41:29;;;;;;;0.57;0.57;;;6.50;99.90;;;;;;6174073;23;20167;-86
2023/12/30 09:44:00;;;;;;;1.43;0.90;;;6.30;99.90;;;;;;6175210;23;20158;-88
2023/12/30 09:46:29;;;;;;;1.20;1.10;;;6.30;99.90;;;;;;6175563;23;20154;-85
2023/12/30 09:48:59;;;;;;;1.40;1.17;;;6.10;99.90;;;;;;6141537;23;20199;-85
2023/12/30 09:51:30;;;;;;;1.73;1.63;;;6.10;99.90;;;;;;6174916;23;20209;-85
2023/12/30 09:53:59;;;;;;;1.97;1.70;;;6.10;99.90;;;;;;6169700;23;20163;-87
2023/12/30 09:56:30;;;;;;;2.90;1.53;;;6.20;99.90;;;;;;6175356;23;20183;-88
2023/12/30 09:59:01;;;;;;;1.70;1.60;;;6.30;99.90;;;;;;6176454;23;20502;-87
2023/12/30 10:01:31;;;;;;;2.00;1.80;;;6.30;99.90;;;;;;6142226;23;20171;-86
2023/12/30 10:04:01;;;;;;;1.83;1.73;;;6.40;99.90;;;;;;6178207;23;20155;-89
2023/12/30 10:06:34;;;;;;;2.53;1.90;;;6.50;99.90;;;;;;6140627;23;20183;-86
2023/12/30 10:09:03;;;;;;;2.60;2.10;;;6.60;99.90;;;;;;6177004;23;20187;-86
2023/12/30 10:11:32;;;;;;;2.37;1.90;;;6.60;99.90;;;;;;6139876;23;20191;-87
2023/12/30 10:14:03;;;;;;;2.30;2.10;;;6.80;99.90;;;;;;6175423;23;20164;-88
2023/12/30 10:16:32;;;;;;;4.77;2.30;;;7.00;99.90;;;;;;6140078;23;20179;-87
2023/12/30 10:19:01;;;;;;;3.47;2.50;;;7.00;99.90;;;;;;6175062;23;20156;-88
2023/12/30 10:21:31;;;;;;;3.33;2.40;;;6.90;99.90;;;;;;6141251;23;20371;-86
2023/12/30 10:24:04;;;;;;;3.63;2.20;;;6.80;99.90;;;;;;6174012;23;20538;-85
2023/12/30 10:26:37;;;;;;;4.73;3.00;;;7.00;99.90;;;;;;6159658;23;20213;-86
2023/12/30 10:29:09;;;;;;;3.17;2.53;;;6.90;99.90;;;;;;6155368;23;20167;-89
2023/12/30 10:31:38;;;;;;;2.67;2.33;;;6.90;99.90;;;;;;6170076;23;20171;-87
2023/12/30 10:34:07;;;;;;;3.97;2.93;;;7.00;99.90;;;;;;6171148;23;20186;-87
2023/12/30 10:36:37;;;;;;;4.97;2.97;;;7.20;99.90;;;;;;6155172;23;20472;-86
2023/12/30 10:39:10;;;;;;;3.27;2.80;;;7.30;99.90;;;;;;6149766;23;20180;-87
2023/12/30 10:41:39;;;;;;;3.13;2.60;;;7.40;99.90;;;;;;6149951;23;20167;-85
2023/12/30 10:44:09;;;;;;;4.10;2.90;;;7.50;99.90;;;;;;6117354;23;20199;-85
2023/12/30 10:46:40;;;;;;;2.37;1.93;;;7.50;99.90;;;;;;6153485;23;20164;-86
2023/12/30 10:49:15;;;;;;;2.70;2.20;;;7.50;99.90;;;;;;6153267;23;20195;-84
2023/12/30 10:51:47;;;;;;;2.13;1.63;;;7.70;99.90;;;;;;6161659;23;20213;-87
2023/12/30 10:54:27;;;;;;;1.87;1.60;;;7.70;99.90;;;;;;6151551;23;20164;-87
2023/12/30 10:57:02;;;;;;;2.30;1.80;;;7.80;99.90;;;;;;6150482;23;20180;-87
2023/12/30 10:59:38;;;;;;;1.73;1.60;;;7.80;99.90;;;;;;6150001;23;20606;-87
2023/12/30 11:02:10;;;;;;;1.80;1.63;;;7.90;99.90;;;;;;6158201;23;20163;-89
2023/12/30 11:04:39;;;;;;;3.33;1.73;;;8.00;99.90;;;;;;6161886;23;20270;-87
2023/12/30 11:07:13;;;;;;;1.97;1.63;;;7.90;99.90;;;;;;6149812;23;20164;-85
2023/12/30 11:09:44;;;;;;;1.83;1.63;;;8.10;99.90;;;;;;6151795;23;20179;-87
2023/12/30 11:12:14;;;;;;;1.70;1.47;;;8.20;99.90;;;;;;6149907;23;20184;-84
2023/12/30 11:14:44;;;;;;;1.73;1.63;;;8.20;99.90;;;;;;6151886;23;20728;-87
2023/12/30 11:17:34;;;;;;;1.80;1.70;;;8.20;99.90;;;;;;6158823;23;20541;-86
2023/12/30 11:20:25;;;;;;;2.40;1.70;;;8.10;99.90;;;;;;6150088;23;20168;-87
2023/12/30 11:23:02;;;;;;;2.30;2.10;;;8.00;99.90;;;;;;6153113;23;20163;-89
2023/12/30 11:25:36;;;;;;;2.00;1.80;;;8.00;99.90;;;;;;6152370;23;20179;-87
2023/12/30 11:28:16;;;;;;;5.70;2.50;;;8.00;99.90;;;;;;6150625;23;20163;-85
2023/12/30 11:30:58;;;;;;;2.10;1.90;;;8.00;99.90;;;;;;6154010;23;20254;-85
2023/12/30 11:33:31;;;;;;;2.77;2.10;;;8.20;99.90;;;;;;6151038;23;20673;-83
2023/12/30 11:36:04;;;;;;;2.77;2.20;;;8.20;99.90;;;;;;6156281;23;20191;-85
2023/12/30 11:38:34;;;;;;;3.27;2.27;;;8.30;99.90;;;;;;6121478;23;20184;-86
2023/12/30 11:41:02;;;;;;;2.33;2.13;;;8.20;99.90;;;;;;6153900;23;20163;-85
2023/12/30 11:43:34;;;;;;;2.87;2.00;;;8.20;99.90;;;;;;6153029;23;20206;-85
2023/12/30 11:46:05;;;;;;;2.50;2.10;;;8.20;99.90;;;;;;6155307;23;20659;-84
2023/12/30 11:48:37;;;;;;;2.23;2.03;;;8.00;99.90;;;;;;6155142;23;20175;-85
2023/12/30 11:51:07;;;;;;;2.17;2.03;;;7.70;99.90;;;;;;6158161;23;20231;-86
2023/12/30 11:53:37;;;;;;;2.57;2.23;;;7.30;99.90;;;;;;6159221;23;20167;-84
2023/12/30 11:56:07;;;;;;;1.57;1.47;;;6.90;99.90;;;;;;6159858;23;20503;-88
2023/12/30 11:58:37;;;;;;;1.80;1.70;;;6.50;99.90;;;;;;6172242;23;20182;-87
2023/12/30 12:01:08;;;;;;;1.43;1.20;;;6.10;99.90;;;;;;6177975;23;20152;-86
2023/12/30 12:03:38;;;;;;;3.03;1.40;;;6.00;99.90;;;;;;6179396;23;20203;-87
2023/12/30 12:06:10;;;;;;;0.83;0.83;;;5.80;99.90;;;;;;6178276;23;20197;-86
2023/12/30 12:08:39;;;;;;;2.90;0.97;;;5.70;99.90;;;;;;6159179;23;20167;-87
2023/12/30 12:11:10;;;;;;;1.57;1.00;;;5.60;99.90;;;;;;6159709;23;20202;-87
2023/12/30 12:13:40;;;;;;;1.57;1.10;;;5.30;99.90;;;;;;6160521;23;20217;-85
2023/12/30 12:16:14;;;;;;;0.70;0.70;;;5.50;99.90;;;;;;6168784;23;20206;-88
2023/12/30 12:18:43;;;;;;;2.70;0.90;;;5.20;99.90;;;;;;6126676;23;20593;-84
2023/12/30 12:21:15;;;;;;;1.77;1.07;;;5.10;99.90;;;;;;6157636;23;20171;-88
2023/12/30 12:23:45;;;;;;;2.07;1.40;;;5.10;99.90;;;;;;6159163;23;20482;-86
2023/12/30 12:26:14;;;;;;;4.43;1.60;;;5.10;99.90;;;;;;6156159;23;20769;-84
2023/12/30 12:28:43;;;;;;;3.73;1.70;;;5.10;99.90;;;;;;6156272;23;20169;-85
2023/12/30 12:31:14;;;;;;;2.97;1.70;;;5.10;99.90;;;;;;6155440;23;20910;-85
2023/12/30 12:33:45;;;;;;;2.73;1.50;;;5.10;99.90;;;;;;6160581;23;20169;-85
2023/12/30 12:36:14;;;;;;;2.43;1.83;;;5.20;99.90;;;;;;6165745;23;20311;-87
2023/12/30 12:38:44;;;;;;;1.80;1.70;;;5.30;99.90;;;;;;6121632;23;20193;-86
2023/12/30 12:41:13;;;;;;;2.33;1.60;;;5.30;99.90;;;;;;6162361;23;20222;-85
2023/12/30 12:43:42;;;;;;;3.13;1.80;;;5.50;99.90;;;;;;6152704;23;20170;-87
2023/12/30 12:46:14;;;;;;;2.07;1.97;;;5.60;99.90;;;;;;6154272;23;20178;-84
2023/12/30 12:48:43;;;;;;;2.00;1.80;;;5.80;99.90;;;;;;6157897;23;20189;-86
2023/12/30 12:51:13;;;;;;;2.90;2.20;;;5.90;99.90;;;;;;6154136;23;20194;-86
2023/12/30 12:53:42;;;;;;;3.03;2.20;;;5.80;99.90;;;;;;6150828;23;20511;-87
2023/12/30 12:56:11;;;;;;;3.33;2.20;;;6.00;99.90;;;;;;6151966;23;20706;-85
2023/12/30 12:58:40;;;;;;;2.67;2.00;;;5.80;99.90;;;;;;6115630;23;20202;-87
2023/12/30 13:01:09;;;;;;;4.03;2.20;;;5.80;99.90;;;;;;6151909;23;20229;-86
2023/12/30 13:03:41;;;;;;;2.30;2.10;;;5.80;99.90;;;;;;6149308;23;20853;-88
2023/12/30 13:06:12;;;;;;;2.97;2.20;;;5.90;99.90;;;;;;6154970;23;20203;-88
2023/12/30 13:08:42;;;;;;;3.00;2.33;;;5.90;99.90;;;;;;6155418;23;20493;-86
2023/12/30 13:11:13;;;;;;;3.23;2.80;;;5.90;99.90;;;;;;6151636;23;20168;-87
2023/12/30 13:13:49;;;;;;;3.70;2.80;;;6.00;99.90;;;;;;6151257;23;20171;-89
2023/12/30 13:16:18;;;;;;;3.93;3.20;;;6.00;99.90;;;;;;6116513;23;20182;-86
2023/12/30 13:18:50;;;;;;;5.07;3.10;;;6.10;99.90;;;;;;6160568;23;20262;-85
2023/12/30 13:21:19;;;;;;;4.07;2.90;;;6.10;99.90;;;;;;6161513;23;20556;-83
2023/12/30 13:23:50;;;;;;;5.87;3.27;;;6.30;99.90;;;;;;6117822;23;20212;-88